sensor_id;sensor_type;location;lat;lon;timestamp;P1;durP1;ratioP1;P2;durP2;ratioP2
17363;SDS011;8799;43.594;13.526;2022-08-02T00:01:19;2.97;;;1.90;;
17363;SDS011;8799;43.594;13.526;2022-08-02T00:03:47;2.80;;;1.87;;
17363;SDS011;8799;43.594;13.526;2022-08-02T00:06:15;2.00;;;1.80;;
17363;SDS011;8799;43.594;13.526;2022-08-02T00:08:43;2.40;;;1.70;;
17363;SDS011;8799;43.594;13.526;2022-08-02T00:11:11;4.93;;;1.73;;
17363;SDS011;8799;43.594;13.526;2022-08-02T00:13:40;4.07;;;1.63;;
17363;SDS011;8799;43.594;13.526;2022-08-02T00:16:08;2.87;;;1.97;;
17363;SDS011;8799;43.594;13.526;2022-08-02T00:18:35;2.03;;;1.83;;
17363;SDS011;8799;43.594;13.526;2022-08-02T00:21:03;2.67;;;1.93;;
17363;SDS011;8799;43.594;13.526;2022-08-02T00:23:30;2.70;;;1.93;;
17363;SDS011;8799;43.594;13.526;2022-08-02T00:26:02;2.67;;;1.90;;
17363;SDS011;8799;43.594;13.526;2022-08-02T00:28:31;3.83;;;1.90;;
17363;SDS011;8799;43.594;13.526;2022-08-02T00:31:00;2.50;;;1.90;;
17363;SDS011;8799;43.594;13.526;2022-08-02T00:33:28;2.20;;;1.90;;
17363;SDS011;8799;43.594;13.526;2022-08-02T00:35:56;2.77;;;2.27;;
17363;SDS011;8799;43.594;13.526;2022-08-02T00:38:23;2.00;;;1.80;;
17363;SDS011;8799;43.594;13.526;2022-08-02T00:40:51;1.80;;;1.60;;
17363;SDS011;8799;43.594;13.526;2022-08-02T00:43:19;2.80;;;1.77;;
17363;SDS011;8799;43.594;13.526;2022-08-02T00:45:46;2.93;;;1.90;;
17363;SDS011;8799;43.594;13.526;2022-08-02T00:48:16;2.73;;;2.00;;
17363;SDS011;8799;43.594;13.526;2022-08-02T00:50:44;3.47;;;2.00;;
17363;SDS011;8799;43.594;13.526;2022-08-02T00:53:12;2.27;;;2.00;;
17363;SDS011;8799;43.594;13.526;2022-08-02T00:55:41;1.90;;;1.73;;
17363;SDS011;8799;43.594;13.526;2022-08-02T00:58:08;3.03;;;1.80;;
17363;SDS011;8799;43.594;13.526;2022-08-02T01:00:37;4.30;;;2.07;;
17363;SDS011;8799;43.594;13.526;2022-08-02T01:03:05;4.00;;;2.00;;
17363;SDS011;8799;43.594;13.526;2022-08-02T01:05:34;3.73;;;2.07;;
17363;SDS011;8799;43.594;13.526;2022-08-02T01:08:02;2.67;;;2.00;;
17363;SDS011;8799;43.594;13.526;2022-08-02T01:10:29;2.70;;;1.80;;
17363;SDS011;8799;43.594;13.526;2022-08-02T01:12:57;4.43;;;1.97;;
17363;SDS011;8799;43.594;13.526;2022-08-02T01:15:25;2.73;;;2.03;;
17363;SDS011;8799;43.594;13.526;2022-08-02T01:17:55;3.47;;;1.90;;
17363;SDS011;8799;43.594;13.526;2022-08-02T01:20:35;2.63;;;2.00;;
17363;SDS011;8799;43.594;13.526;2022-08-02T01:23:24;2.73;;;1.67;;
17363;SDS011;8799;43.594;13.526;2022-08-02T01:26:08;2.67;;;1.97;;
17363;SDS011;8799;43.594;13.526;2022-08-02T01:28:58;5.40;;;1.90;;
17363;SDS011;8799;43.594;13.526;2022-08-02T01:31:31;2.43;;;1.87;;
17363;SDS011;8799;43.594;13.526;2022-08-02T01:34:05;1.70;;;1.60;;
17363;SDS011;8799;43.594;13.526;2022-08-02T01:36:39;2.13;;;1.90;;
17363;SDS011;8799;43.594;13.526;2022-08-02T01:39:11;4.73;;;1.90;;
17363;SDS011;8799;43.594;13.526;2022-08-02T01:41:41;2.03;;;1.70;;
17363;SDS011;8799;43.594;13.526;2022-08-02T01:44:12;4.07;;;2.03;;
17363;SDS011;8799;43.594;13.526;2022-08-02T01:46:42;3.60;;;1.80;;
17363;SDS011;8799;43.594;13.526;2022-08-02T01:49:14;2.60;;;1.90;;
17363;SDS011;8799;43.594;13.526;2022-08-02T01:51:48;2.60;;;1.90;;
17363;SDS011;8799;43.594;13.526;2022-08-02T01:54:35;3.00;;;2.00;;
17363;SDS011;8799;43.594;13.526;2022-08-02T01:57:04;2.70;;;1.60;;
17363;SDS011;8799;43.594;13.526;2022-08-02T01:59:36;3.30;;;1.73;;
17363;SDS011;8799;43.594;13.526;2022-08-02T02:02:06;1.97;;;1.77;;
17363;SDS011;8799;43.594;13.526;2022-08-02T02:04:36;2.03;;;1.83;;
17363;SDS011;8799;43.594;13.526;2022-08-02T02:07:05;5.10;;;2.00;;
17363;SDS011;8799;43.594;13.526;2022-08-02T02:09:34;2.07;;;1.70;;
17363;SDS011;8799;43.594;13.526;2022-08-02T02:12:05;3.00;;;1.87;;
17363;SDS011;8799;43.594;13.526;2022-08-02T02:14:35;3.90;;;1.93;;
17363;SDS011;8799;43.594;13.526;2022-08-02T02:17:05;3.57;;;2.07;;
17363;SDS011;8799;43.594;13.526;2022-08-02T02:19:34;2.73;;;1.80;;
17363;SDS011;8799;43.594;13.526;2022-08-02T02:22:03;3.47;;;2.00;;
17363;SDS011;8799;43.594;13.526;2022-08-02T02:24:31;1.70;;;1.60;;
17363;SDS011;8799;43.594;13.526;2022-08-02T02:26:59;2.60;;;1.90;;
17363;SDS011;8799;43.594;13.526;2022-08-02T02:29:29;2.10;;;1.60;;
17363;SDS011;8799;43.594;13.526;2022-08-02T02:32:00;1.97;;;1.77;;
17363;SDS011;8799;43.594;13.526;2022-08-02T02:34:31;4.60;;;1.80;;
17363;SDS011;8799;43.594;13.526;2022-08-02T02:37:03;2.27;;;2.00;;
17363;SDS011;8799;43.594;13.526;2022-08-02T02:39:34;2.07;;;1.67;;
17363;SDS011;8799;43.594;13.526;2022-08-02T02:42:06;2.33;;;1.87;;
17363;SDS011;8799;43.594;13.526;2022-08-02T02:44:37;2.00;;;1.80;;
17363;SDS011;8799;43.594;13.526;2022-08-02T02:47:08;3.50;;;1.83;;
17363;SDS011;8799;43.594;13.526;2022-08-02T02:49:37;2.90;;;1.90;;
17363;SDS011;8799;43.594;13.526;2022-08-02T02:52:05;4.73;;;2.17;;
17363;SDS011;8799;43.594;13.526;2022-08-02T02:54:35;5.10;;;1.80;;
17363;SDS011;8799;43.594;13.526;2022-08-02T02:57:04;3.33;;;1.97;;
17363;SDS011;8799;43.594;13.526;2022-08-02T02:59:33;2.87;;;1.87;;
17363;SDS011;8799;43.594;13.526;2022-08-02T03:02:02;3.70;;;1.90;;
17363;SDS011;8799;43.594;13.526;2022-08-02T03:04:33;3.33;;;1.60;;
17363;SDS011;8799;43.594;13.526;2022-08-02T03:07:03;3.13;;;2.07;;
17363;SDS011;8799;43.594;13.526;2022-08-02T03:09:31;3.07;;;1.77;;
17363;SDS011;8799;43.594;13.526;2022-08-02T03:11:58;5.40;;;2.13;;
17363;SDS011;8799;43.594;13.526;2022-08-02T03:14:26;4.43;;;2.10;;
17363;SDS011;8799;43.594;13.526;2022-08-02T03:16:54;3.60;;;1.97;;
17363;SDS011;8799;43.594;13.526;2022-08-02T03:19:22;4.30;;;1.97;;
17363;SDS011;8799;43.594;13.526;2022-08-02T03:21:51;2.00;;;1.80;;
17363;SDS011;8799;43.594;13.526;2022-08-02T03:24:20;2.37;;;1.80;;
17363;SDS011;8799;43.594;13.526;2022-08-02T03:26:47;3.83;;;2.03;;
17363;SDS011;8799;43.594;13.526;2022-08-02T03:29:15;3.00;;;1.90;;
17363;SDS011;8799;43.594;13.526;2022-08-02T03:31:43;2.33;;;1.93;;
17363;SDS011;8799;43.594;13.526;2022-08-02T03:34:12;5.60;;;2.30;;
17363;SDS011;8799;43.594;13.526;2022-08-02T03:36:40;3.57;;;2.20;;
17363;SDS011;8799;43.594;13.526;2022-08-02T03:39:10;2.90;;;1.90;;
17363;SDS011;8799;43.594;13.526;2022-08-02T03:41:39;2.40;;;1.90;;
17363;SDS011;8799;43.594;13.526;2022-08-02T03:44:09;3.03;;;2.23;;
17363;SDS011;8799;43.594;13.526;2022-08-02T03:46:37;2.20;;;1.70;;
17363;SDS011;8799;43.594;13.526;2022-08-02T03:49:07;3.27;;;1.90;;
17363;SDS011;8799;43.594;13.526;2022-08-02T03:51:36;2.53;;;1.87;;
17363;SDS011;8799;43.594;13.526;2022-08-02T03:54:04;3.40;;;2.10;;
17363;SDS011;8799;43.594;13.526;2022-08-02T03:56:34;3.07;;;2.03;;
17363;SDS011;8799;43.594;13.526;2022-08-02T03:59:05;3.10;;;2.10;;
17363;SDS011;8799;43.594;13.526;2022-08-02T04:01:34;4.93;;;1.80;;
17363;SDS011;8799;43.594;13.526;2022-08-02T04:04:02;4.57;;;1.97;;
17363;SDS011;8799;43.594;13.526;2022-08-02T04:06:30;2.60;;;2.00;;
17363;SDS011;8799;43.594;13.526;2022-08-02T04:08:57;3.60;;;2.03;;
17363;SDS011;8799;43.594;13.526;2022-08-02T04:11:25;3.50;;;2.03;;
17363;SDS011;8799;43.594;13.526;2022-08-02T04:13:58;2.03;;;1.83;;
17363;SDS011;8799;43.594;13.526;2022-08-02T04:16:28;3.03;;;2.10;;
17363;SDS011;8799;43.594;13.526;2022-08-02T04:19:02;2.23;;;1.70;;
17363;SDS011;8799;43.594;13.526;2022-08-02T04:21:33;3.87;;;2.30;;
17363;SDS011;8799;43.594;13.526;2022-08-02T04:24:03;2.70;;;2.10;;
17363;SDS011;8799;43.594;13.526;2022-08-02T04:26:33;5.00;;;1.90;;
17363;SDS011;8799;43.594;13.526;2022-08-02T04:29:03;3.60;;;2.00;;
17363;SDS011;8799;43.594;13.526;2022-08-02T04:31:32;3.80;;;2.50;;
17363;SDS011;8799;43.594;13.526;2022-08-02T04:34:01;2.93;;;2.30;;
17363;SDS011;8799;43.594;13.526;2022-08-02T04:36:29;2.83;;;2.10;;
17363;SDS011;8799;43.594;13.526;2022-08-02T04:38:57;2.63;;;2.00;;
17363;SDS011;8799;43.594;13.526;2022-08-02T04:41:35;2.63;;;2.00;;
17363;SDS011;8799;43.594;13.526;2022-08-02T04:44:06;3.67;;;2.07;;
17363;SDS011;8799;43.594;13.526;2022-08-02T04:46:33;3.00;;;2.17;;
17363;SDS011;8799;43.594;13.526;2022-08-02T04:49:02;2.30;;;1.90;;
17363;SDS011;8799;43.594;13.526;2022-08-02T04:51:30;4.27;;;1.97;;
17363;SDS011;8799;43.594;13.526;2022-08-02T04:54:00;3.10;;;1.77;;
17363;SDS011;8799;43.594;13.526;2022-08-02T04:56:28;3.57;;;1.90;;
17363;SDS011;8799;43.594;13.526;2022-08-02T04:58:55;6.60;;;2.23;;
17363;SDS011;8799;43.594;13.526;2022-08-02T05:01:25;2.10;;;1.80;;
17363;SDS011;8799;43.594;13.526;2022-08-02T05:03:53;4.23;;;1.80;;
17363;SDS011;8799;43.594;13.526;2022-08-02T05:06:21;1.93;;;1.70;;
17363;SDS011;8799;43.594;13.526;2022-08-02T05:08:49;3.53;;;2.10;;
17363;SDS011;8799;43.594;13.526;2022-08-02T05:11:17;4.03;;;1.70;;
17363;SDS011;8799;43.594;13.526;2022-08-02T05:13:44;3.27;;;1.57;;
17363;SDS011;8799;43.594;13.526;2022-08-02T05:16:12;17.40;;;2.20;;
17363;SDS011;8799;43.594;13.526;2022-08-02T05:18:42;4.97;;;1.83;;
17363;SDS011;8799;43.594;13.526;2022-08-02T05:21:10;5.97;;;1.90;;
17363;SDS011;8799;43.594;13.526;2022-08-02T05:23:37;1.97;;;1.70;;
17363;SDS011;8799;43.594;13.526;2022-08-02T05:26:05;2.00;;;1.50;;
17363;SDS011;8799;43.594;13.526;2022-08-02T05:28:33;2.63;;;1.80;;
17363;SDS011;8799;43.594;13.526;2022-08-02T05:31:01;1.93;;;1.50;;
17363;SDS011;8799;43.594;13.526;2022-08-02T05:33:28;2.47;;;1.80;;
17363;SDS011;8799;43.594;13.526;2022-08-02T05:35:58;4.73;;;1.63;;
17363;SDS011;8799;43.594;13.526;2022-08-02T05:38:25;3.50;;;1.97;;
17363;SDS011;8799;43.594;13.526;2022-08-02T05:40:55;2.90;;;1.70;;
17363;SDS011;8799;43.594;13.526;2022-08-02T05:43:23;2.73;;;2.03;;
17363;SDS011;8799;43.594;13.526;2022-08-02T05:45:51;2.10;;;1.60;;
17363;SDS011;8799;43.594;13.526;2022-08-02T05:48:21;2.57;;;1.80;;
17363;SDS011;8799;43.594;13.526;2022-08-02T05:50:51;4.50;;;2.00;;
17363;SDS011;8799;43.594;13.526;2022-08-02T05:53:31;3.53;;;1.60;;
17363;SDS011;8799;43.594;13.526;2022-08-02T05:56:06;3.10;;;1.70;;
17363;SDS011;8799;43.594;13.526;2022-08-02T05:58:44;3.10;;;1.70;;
17363;SDS011;8799;43.594;13.526;2022-08-02T06:01:19;3.73;;;1.70;;
17363;SDS011;8799;43.594;13.526;2022-08-02T06:03:55;3.70;;;2.33;;
17363;SDS011;8799;43.594;13.526;2022-08-02T06:06:25;1.70;;;1.50;;
17363;SDS011;8799;43.594;13.526;2022-08-02T06:08:58;1.90;;;1.60;;
17363;SDS011;8799;43.594;13.526;2022-08-02T06:11:31;1.47;;;1.37;;
17363;SDS011;8799;43.594;13.526;2022-08-02T06:14:01;1.70;;;1.60;;
17363;SDS011;8799;43.594;13.526;2022-08-02T06:16:29;3.17;;;2.00;;
17363;SDS011;8799;43.594;13.526;2022-08-02T06:18:58;1.83;;;1.70;;
17363;SDS011;8799;43.594;13.526;2022-08-02T06:21:26;3.77;;;1.60;;
17363;SDS011;8799;43.594;13.526;2022-08-02T06:23:57;1.77;;;1.50;;
17363;SDS011;8799;43.594;13.526;2022-08-02T06:26:24;3.27;;;1.60;;
17363;SDS011;8799;43.594;13.526;2022-08-02T06:28:53;1.60;;;1.50;;
17363;SDS011;8799;43.594;13.526;2022-08-02T06:31:22;1.70;;;1.60;;
17363;SDS011;8799;43.594;13.526;2022-08-02T06:33:50;1.53;;;1.43;;
17363;SDS011;8799;43.594;13.526;2022-08-02T06:36:20;3.97;;;1.53;;
17363;SDS011;8799;43.594;13.526;2022-08-02T06:39:00;1.70;;;1.60;;
17363;SDS011;8799;43.594;13.526;2022-08-02T06:41:30;3.23;;;1.90;;
17363;SDS011;8799;43.594;13.526;2022-08-02T06:44:04;1.67;;;1.57;;
17363;SDS011;8799;43.594;13.526;2022-08-02T06:46:32;5.27;;;1.87;;
17363;SDS011;8799;43.594;13.526;2022-08-02T06:49:00;1.70;;;1.60;;
17363;SDS011;8799;43.594;13.526;2022-08-02T06:51:28;2.20;;;1.70;;
17363;SDS011;8799;43.594;13.526;2022-08-02T06:53:56;1.77;;;1.53;;
17363;SDS011;8799;43.594;13.526;2022-08-02T06:56:26;1.93;;;1.57;;
17363;SDS011;8799;43.594;13.526;2022-08-02T06:58:53;1.93;;;1.63;;
17363;SDS011;8799;43.594;13.526;2022-08-02T07:01:21;2.77;;;2.00;;
17363;SDS011;8799;43.594;13.526;2022-08-02T07:03:49;2.20;;;1.60;;
17363;SDS011;8799;43.594;13.526;2022-08-02T07:06:16;1.90;;;1.70;;
17363;SDS011;8799;43.594;13.526;2022-08-02T07:08:48;2.23;;;1.60;;
17363;SDS011;8799;43.594;13.526;2022-08-02T07:11:16;1.70;;;1.60;;
17363;SDS011;8799;43.594;13.526;2022-08-02T07:13:46;1.90;;;1.70;;
17363;SDS011;8799;43.594;13.526;2022-08-02T07:16:17;5.13;;;1.67;;
17363;SDS011;8799;43.594;13.526;2022-08-02T07:18:45;3.07;;;1.67;;
17363;SDS011;8799;43.594;13.526;2022-08-02T07:21:13;2.87;;;1.80;;
17363;SDS011;8799;43.594;13.526;2022-08-02T07:23:41;2.10;;;1.80;;
17363;SDS011;8799;43.594;13.526;2022-08-02T07:26:09;2.90;;;1.80;;
17363;SDS011;8799;43.594;13.526;2022-08-02T07:28:36;2.33;;;1.63;;
17363;SDS011;8799;43.594;13.526;2022-08-02T07:31:06;1.83;;;1.73;;
17363;SDS011;8799;43.594;13.526;2022-08-02T07:33:34;1.70;;;1.60;;
17363;SDS011;8799;43.594;13.526;2022-08-02T07:36:02;2.77;;;1.97;;
17363;SDS011;8799;43.594;13.526;2022-08-02T07:38:31;3.73;;;1.90;;
17363;SDS011;8799;43.594;13.526;2022-08-02T07:40:59;1.83;;;1.73;;
17363;SDS011;8799;43.594;13.526;2022-08-02T07:43:26;3.53;;;1.63;;
17363;SDS011;8799;43.594;13.526;2022-08-02T07:45:54;2.33;;;1.90;;
17363;SDS011;8799;43.594;13.526;2022-08-02T07:48:23;5.33;;;1.80;;
17363;SDS011;8799;43.594;13.526;2022-08-02T07:50:51;1.97;;;1.67;;
17363;SDS011;8799;43.594;13.526;2022-08-02T07:53:18;1.63;;;1.53;;
17363;SDS011;8799;43.594;13.526;2022-08-02T07:55:49;1.87;;;1.70;;
17363;SDS011;8799;43.594;13.526;2022-08-02T07:58:17;4.23;;;1.70;;
17363;SDS011;8799;43.594;13.526;2022-08-02T08:00:45;1.90;;;1.70;;
17363;SDS011;8799;43.594;13.526;2022-08-02T08:03:12;2.67;;;1.53;;
17363;SDS011;8799;43.594;13.526;2022-08-02T08:05:42;2.20;;;1.80;;
17363;SDS011;8799;43.594;13.526;2022-08-02T08:08:09;2.07;;;1.87;;
17363;SDS011;8799;43.594;13.526;2022-08-02T08:10:38;2.10;;;1.47;;
17363;SDS011;8799;43.594;13.526;2022-08-02T08:13:06;1.77;;;1.67;;
17363;SDS011;8799;43.594;13.526;2022-08-02T08:15:34;2.47;;;1.70;;
17363;SDS011;8799;43.594;13.526;2022-08-02T08:18:01;2.10;;;1.80;;
17363;SDS011;8799;43.594;13.526;2022-08-02T08:20:29;1.77;;;1.60;;
17363;SDS011;8799;43.594;13.526;2022-08-02T08:23:03;2.73;;;1.80;;
17363;SDS011;8799;43.594;13.526;2022-08-02T08:25:30;2.47;;;1.90;;
17363;SDS011;8799;43.594;13.526;2022-08-02T08:27:58;1.63;;;1.50;;
17363;SDS011;8799;43.594;13.526;2022-08-02T08:30:26;1.80;;;1.70;;
17363;SDS011;8799;43.594;13.526;2022-08-02T08:32:54;5.17;;;1.83;;
17363;SDS011;8799;43.594;13.526;2022-08-02T08:35:22;3.20;;;1.63;;
17363;SDS011;8799;43.594;13.526;2022-08-02T08:37:49;3.13;;;1.80;;
17363;SDS011;8799;43.594;13.526;2022-08-02T08:40:23;2.60;;;1.83;;
17363;SDS011;8799;43.594;13.526;2022-08-02T08:42:51;2.47;;;1.60;;
17363;SDS011;8799;43.594;13.526;2022-08-02T08:45:19;2.40;;;1.73;;
17363;SDS011;8799;43.594;13.526;2022-08-02T08:47:51;2.10;;;1.90;;
17363;SDS011;8799;43.594;13.526;2022-08-02T08:50:26;5.23;;;2.10;;
17363;SDS011;8799;43.594;13.526;2022-08-02T08:53:00;2.20;;;1.90;;
17363;SDS011;8799;43.594;13.526;2022-08-02T08:55:32;4.67;;;2.20;;
17363;SDS011;8799;43.594;13.526;2022-08-02T08:58:01;3.10;;;2.37;;
17363;SDS011;8799;43.594;13.526;2022-08-02T09:00:30;2.43;;;1.87;;
17363;SDS011;8799;43.594;13.526;2022-08-02T09:03:00;2.37;;;2.00;;
17363;SDS011;8799;43.594;13.526;2022-08-02T09:05:28;2.83;;;2.10;;
17363;SDS011;8799;43.594;13.526;2022-08-02T09:07:56;4.27;;;2.10;;
17363;SDS011;8799;43.594;13.526;2022-08-02T09:10:35;3.77;;;2.50;;
17363;SDS011;8799;43.594;13.526;2022-08-02T09:13:09;3.17;;;2.10;;
17363;SDS011;8799;43.594;13.526;2022-08-02T09:15:39;4.17;;;1.90;;
17363;SDS011;8799;43.594;13.526;2022-08-02T09:18:07;2.93;;;2.03;;
17363;SDS011;8799;43.594;13.526;2022-08-02T09:20:49;2.73;;;2.00;;
17363;SDS011;8799;43.594;13.526;2022-08-02T09:23:19;3.23;;;2.30;;
17363;SDS011;8799;43.594;13.526;2022-08-02T09:25:58;2.90;;;2.27;;
17363;SDS011;8799;43.594;13.526;2022-08-02T09:28:28;2.23;;;2.03;;
17363;SDS011;8799;43.594;13.526;2022-08-02T09:30:57;2.93;;;1.93;;
17363;SDS011;8799;43.594;13.526;2022-08-02T09:33:30;3.23;;;2.43;;
17363;SDS011;8799;43.594;13.526;2022-08-02T09:35:59;3.30;;;2.37;;
17363;SDS011;8799;43.594;13.526;2022-08-02T09:38:27;2.70;;;2.30;;
17363;SDS011;8799;43.594;13.526;2022-08-02T09:40:54;2.93;;;2.30;;
17363;SDS011;8799;43.594;13.526;2022-08-02T09:43:34;2.93;;;2.27;;
17363;SDS011;8799;43.594;13.526;2022-08-02T09:46:10;3.10;;;2.40;;
17363;SDS011;8799;43.594;13.526;2022-08-02T09:48:46;2.57;;;2.33;;
17363;SDS011;8799;43.594;13.526;2022-08-02T09:51:36;2.33;;;2.07;;
17363;SDS011;8799;43.594;13.526;2022-08-02T09:54:05;2.90;;;2.50;;
17363;SDS011;8799;43.594;13.526;2022-08-02T09:56:45;3.17;;;2.30;;
17363;SDS011;8799;43.594;13.526;2022-08-02T09:59:15;3.27;;;2.40;;
17363;SDS011;8799;43.594;13.526;2022-08-02T10:01:45;2.70;;;2.50;;
17363;SDS011;8799;43.594;13.526;2022-08-02T10:04:14;2.97;;;2.60;;
17363;SDS011;8799;43.594;13.526;2022-08-02T10:06:45;3.37;;;2.80;;
17363;SDS011;8799;43.594;13.526;2022-08-02T10:09:15;2.47;;;2.13;;
17363;SDS011;8799;43.594;13.526;2022-08-02T10:11:43;2.87;;;2.40;;
17363;SDS011;8799;43.594;13.526;2022-08-02T10:14:11;4.17;;;2.80;;
17363;SDS011;8799;43.594;13.526;2022-08-02T10:16:41;3.23;;;2.43;;
17363;SDS011;8799;43.594;13.526;2022-08-02T10:19:09;4.03;;;2.60;;
17363;SDS011;8799;43.594;13.526;2022-08-02T10:21:39;3.47;;;2.80;;
17363;SDS011;8799;43.594;13.526;2022-08-02T10:24:12;3.30;;;2.70;;
17363;SDS011;8799;43.594;13.526;2022-08-02T10:26:42;2.43;;;2.23;;
17363;SDS011;8799;43.594;13.526;2022-08-02T10:29:14;2.63;;;2.37;;
17363;SDS011;8799;43.594;13.526;2022-08-02T10:31:45;5.73;;;2.60;;
17363;SDS011;8799;43.594;13.526;2022-08-02T10:34:16;4.17;;;2.67;;
17363;SDS011;8799;43.594;13.526;2022-08-02T10:36:47;2.70;;;2.43;;
17363;SDS011;8799;43.594;13.526;2022-08-02T10:39:15;3.83;;;2.37;;
17363;SDS011;8799;43.594;13.526;2022-08-02T10:41:44;3.10;;;2.70;;
17363;SDS011;8799;43.594;13.526;2022-08-02T10:44:24;3.67;;;2.60;;
17363;SDS011;8799;43.594;13.526;2022-08-02T10:47:17;5.27;;;2.83;;
17363;SDS011;8799;43.594;13.526;2022-08-02T10:49:47;3.57;;;2.83;;
17363;SDS011;8799;43.594;13.526;2022-08-02T10:52:15;3.73;;;2.30;;
17363;SDS011;8799;43.594;13.526;2022-08-02T10:54:47;4.33;;;2.70;;
17363;SDS011;8799;43.594;13.526;2022-08-02T10:57:20;3.00;;;2.70;;
17363;SDS011;8799;43.594;13.526;2022-08-02T10:59:50;4.07;;;3.00;;
17363;SDS011;8799;43.594;13.526;2022-08-02T11:02:36;3.30;;;2.80;;
17363;SDS011;8799;43.594;13.526;2022-08-02T11:05:07;3.83;;;3.27;;
17363;SDS011;8799;43.594;13.526;2022-08-02T11:07:40;5.87;;;3.00;;
17363;SDS011;8799;43.594;13.526;2022-08-02T11:13:05;4.27;;;2.73;;
17363;SDS011;8799;43.594;13.526;2022-08-02T11:15:49;3.07;;;2.60;;
17363;SDS011;8799;43.594;13.526;2022-08-02T11:18:20;5.10;;;3.13;;
17363;SDS011;8799;43.594;13.526;2022-08-02T11:23:46;3.67;;;2.80;;
17363;SDS011;8799;43.594;13.526;2022-08-02T11:29:21;4.07;;;2.57;;
17363;SDS011;8799;43.594;13.526;2022-08-02T11:31:57;5.13;;;3.03;;
17363;SDS011;8799;43.594;13.526;2022-08-02T11:34:26;4.27;;;2.80;;
17363;SDS011;8799;43.594;13.526;2022-08-02T11:36:56;4.27;;;2.97;;
17363;SDS011;8799;43.594;13.526;2022-08-02T11:39:24;2.90;;;2.67;;
17363;SDS011;8799;43.594;13.526;2022-08-02T11:41:53;4.40;;;2.87;;
17363;SDS011;8799;43.594;13.526;2022-08-02T11:44:26;3.30;;;2.80;;
17363;SDS011;8799;43.594;13.526;2022-08-02T11:46:59;3.67;;;2.77;;
17363;SDS011;8799;43.594;13.526;2022-08-02T11:49:30;4.10;;;2.67;;
17363;SDS011;8799;43.594;13.526;2022-08-02T11:51:59;4.00;;;3.10;;
17363;SDS011;8799;43.594;13.526;2022-08-02T11:54:30;3.77;;;2.60;;
17363;SDS011;8799;43.594;13.526;2022-08-02T11:57:09;5.60;;;3.20;;
17363;SDS011;8799;43.594;13.526;2022-08-02T11:59:37;7.13;;;4.33;;
17363;SDS011;8799;43.594;13.526;2022-08-02T12:02:05;11.50;;;4.00;;
17363;SDS011;8799;43.594;13.526;2022-08-02T12:04:35;6.80;;;3.93;;
17363;SDS011;8799;43.594;13.526;2022-08-02T12:07:04;6.10;;;3.17;;
17363;SDS011;8799;43.594;13.526;2022-08-02T12:09:33;7.23;;;3.50;;
17363;SDS011;8799;43.594;13.526;2022-08-02T12:12:02;9.60;;;3.30;;
17363;SDS011;8799;43.594;13.526;2022-08-02T12:14:30;7.27;;;3.43;;
17363;SDS011;8799;43.594;13.526;2022-08-02T12:16:59;5.13;;;3.40;;
17363;SDS011;8799;43.594;13.526;2022-08-02T12:19:45;4.13;;;3.17;;
17363;SDS011;8799;43.594;13.526;2022-08-02T12:22:15;4.60;;;2.90;;
17363;SDS011;8799;43.594;13.526;2022-08-02T12:24:45;4.33;;;2.87;;
17363;SDS011;8799;43.594;13.526;2022-08-02T12:27:31;3.87;;;3.00;;
17363;SDS011;8799;43.594;13.526;2022-08-02T12:30:00;6.17;;;2.90;;
17363;SDS011;8799;43.594;13.526;2022-08-02T12:32:29;3.63;;;2.80;;
17363;SDS011;8799;43.594;13.526;2022-08-02T12:35:02;5.40;;;3.13;;
17363;SDS011;8799;43.594;13.526;2022-08-02T12:37:32;3.53;;;2.97;;
17363;SDS011;8799;43.594;13.526;2022-08-02T12:42:47;3.37;;;2.70;;
17363;SDS011;8799;43.594;13.526;2022-08-02T12:45:16;4.00;;;2.93;;
17363;SDS011;8799;43.594;13.526;2022-08-02T12:47:45;4.63;;;2.80;;
17363;SDS011;8799;43.594;13.526;2022-08-02T12:50:16;4.63;;;2.93;;
17363;SDS011;8799;43.594;13.526;2022-08-02T12:52:45;3.63;;;2.80;;
17363;SDS011;8799;43.594;13.526;2022-08-02T12:55:14;3.40;;;2.77;;
17363;SDS011;8799;43.594;13.526;2022-08-02T12:57:50;3.77;;;2.80;;
17363;SDS011;8799;43.594;13.526;2022-08-02T13:00:22;3.93;;;3.00;;
17363;SDS011;8799;43.594;13.526;2022-08-02T13:02:50;3.10;;;2.40;;
17363;SDS011;8799;43.594;13.526;2022-08-02T13:05:20;3.80;;;2.50;;
17363;SDS011;8799;43.594;13.526;2022-08-02T13:07:47;4.87;;;2.57;;
17363;SDS011;8799;43.594;13.526;2022-08-02T13:10:16;5.07;;;2.67;;
17363;SDS011;8799;43.594;13.526;2022-08-02T13:12:44;5.03;;;2.70;;
17363;SDS011;8799;43.594;13.526;2022-08-02T13:15:11;3.83;;;2.73;;
17363;SDS011;8799;43.594;13.526;2022-08-02T13:17:39;4.43;;;2.83;;
17363;SDS011;8799;43.594;13.526;2022-08-02T13:20:07;4.57;;;3.00;;
17363;SDS011;8799;43.594;13.526;2022-08-02T13:22:37;3.80;;;2.60;;
17363;SDS011;8799;43.594;13.526;2022-08-02T13:25:05;5.60;;;2.80;;
17363;SDS011;8799;43.594;13.526;2022-08-02T13:27:33;4.17;;;2.57;;
17363;SDS011;8799;43.594;13.526;2022-08-02T13:30:03;5.70;;;2.70;;
17363;SDS011;8799;43.594;13.526;2022-08-02T13:32:31;3.93;;;2.97;;
17363;SDS011;8799;43.594;13.526;2022-08-02T13:34:59;3.40;;;2.80;;
17363;SDS011;8799;43.594;13.526;2022-08-02T13:37:27;3.90;;;2.70;;
17363;SDS011;8799;43.594;13.526;2022-08-02T13:39:57;4.60;;;2.37;;
17363;SDS011;8799;43.594;13.526;2022-08-02T13:42:25;3.10;;;2.50;;
17363;SDS011;8799;43.594;13.526;2022-08-02T13:44:53;2.90;;;2.40;;
17363;SDS011;8799;43.594;13.526;2022-08-02T13:47:20;2.57;;;2.23;;
17363;SDS011;8799;43.594;13.526;2022-08-02T13:49:48;4.90;;;2.43;;
17363;SDS011;8799;43.594;13.526;2022-08-02T13:52:16;4.27;;;2.37;;
17363;SDS011;8799;43.594;13.526;2022-08-02T13:54:44;2.67;;;2.47;;
17363;SDS011;8799;43.594;13.526;2022-08-02T13:57:14;4.17;;;3.07;;
17363;SDS011;8799;43.594;13.526;2022-08-02T13:59:41;4.63;;;2.40;;
17363;SDS011;8799;43.594;13.526;2022-08-02T14:02:09;3.50;;;2.50;;
17363;SDS011;8799;43.594;13.526;2022-08-02T14:04:37;2.47;;;2.27;;
17363;SDS011;8799;43.594;13.526;2022-08-02T14:07:04;3.57;;;2.40;;
17363;SDS011;8799;43.594;13.526;2022-08-02T14:09:32;3.47;;;2.50;;
17363;SDS011;8799;43.594;13.526;2022-08-02T14:12:00;7.30;;;2.57;;
17363;SDS011;8799;43.594;13.526;2022-08-02T14:14:29;3.20;;;2.37;;
17363;SDS011;8799;43.594;13.526;2022-08-02T14:16:57;6.37;;;2.60;;
17363;SDS011;8799;43.594;13.526;2022-08-02T14:19:25;4.10;;;2.67;;
17363;SDS011;8799;43.594;13.526;2022-08-02T14:21:53;2.93;;;2.50;;
17363;SDS011;8799;43.594;13.526;2022-08-02T14:24:21;4.23;;;2.80;;
17363;SDS011;8799;43.594;13.526;2022-08-02T14:26:49;3.27;;;2.77;;
17363;SDS011;8799;43.594;13.526;2022-08-02T14:29:17;6.30;;;2.60;;
17363;SDS011;8799;43.594;13.526;2022-08-02T14:31:46;6.60;;;2.73;;
17363;SDS011;8799;43.594;13.526;2022-08-02T14:34:14;3.00;;;2.50;;
17363;SDS011;8799;43.594;13.526;2022-08-02T14:36:41;3.33;;;2.67;;
17363;SDS011;8799;43.594;13.526;2022-08-02T14:39:09;4.87;;;2.70;;
17363;SDS011;8799;43.594;13.526;2022-08-02T14:41:37;2.83;;;2.23;;
17363;SDS011;8799;43.594;13.526;2022-08-02T14:44:04;4.40;;;2.43;;
17363;SDS011;8799;43.594;13.526;2022-08-02T14:46:33;3.70;;;2.43;;
17363;SDS011;8799;43.594;13.526;2022-08-02T14:49:03;3.87;;;2.70;;
17363;SDS011;8799;43.594;13.526;2022-08-02T14:51:32;3.80;;;2.60;;
17363;SDS011;8799;43.594;13.526;2022-08-02T14:54:01;4.67;;;2.43;;
17363;SDS011;8799;43.594;13.526;2022-08-02T14:56:30;3.30;;;2.43;;
17363;SDS011;8799;43.594;13.526;2022-08-02T14:58:57;3.57;;;2.33;;
17363;SDS011;8799;43.594;13.526;2022-08-02T15:01:25;5.17;;;2.67;;
17363;SDS011;8799;43.594;13.526;2022-08-02T15:03:53;2.77;;;2.57;;
17363;SDS011;8799;43.594;13.526;2022-08-02T15:06:22;3.50;;;2.47;;
17363;SDS011;8799;43.594;13.526;2022-08-02T15:08:52;4.73;;;2.80;;
17363;SDS011;8799;43.594;13.526;2022-08-02T15:11:19;2.93;;;2.30;;
17363;SDS011;8799;43.594;13.526;2022-08-02T15:13:47;3.30;;;2.30;;
17363;SDS011;8799;43.594;13.526;2022-08-02T15:16:15;2.67;;;2.13;;